createdAt,value
2019-02-25T00:00:08.077Z,23.9
2019-02-25T00:01:10.505Z,23.9
2019-02-25T00:02:12.657Z,23.9
2019-02-25T00:03:14.249Z,23.9
2019-02-25T00:04:16.682Z,23.9
2019-02-25T00:05:18.573Z,23.9
2019-02-25T00:06:21.008Z,23.9
2019-02-25T00:07:23.443Z,23.9
2019-02-25T00:08:25.892Z,23.9
2019-02-25T00:09:28.332Z,23.9
2019-02-25T00:10:30.473Z,23.9
2019-02-25T00:11:32.671Z,23.9
2019-02-25T00:12:35.093Z,23.9
2019-02-25T00:13:37.261Z,23.9
2019-02-25T00:14:39.689Z,23.9
2019-02-25T00:15:41.831Z,23.9
2019-02-25T00:16:43.973Z,23.9
2019-02-25T00:17:46.399Z,23.9
2019-02-25T00:18:48.561Z,23.9
2019-02-25T00:19:50.726Z,23.9
2019-02-25T00:20:53.158Z,23.9
2019-02-25T00:21:55.583Z,23.9
2019-02-25T00:22:58.013Z,23.9
2019-02-25T00:24:00.438Z,23.9
2019-02-25T00:25:02.628Z,23.9
2019-02-25T00:26:04.798Z,23.9
2019-02-25T00:27:06.953Z,23.9
2019-02-25T00:28:09.383Z,23.9
2019-02-25T00:29:11.569Z,23.9
2019-02-25T00:30:14.048Z,23.9
2019-02-25T00:31:16.219Z,23.9
2019-02-25T00:32:18.650Z,23.9
2019-02-25T00:33:21.072Z,23.9
2019-02-25T00:34:22.973Z,23.9
2019-02-25T00:35:25.384Z,23.9
2019-02-25T00:36:27.521Z,24
2019-02-25T00:37:29.680Z,24
2019-02-25T00:38:31.819Z,24
2019-02-25T00:39:33.963Z,24
2019-02-25T00:40:36.389Z,24
2019-02-25T00:41:38.558Z,24
2019-02-25T00:42:40.724Z,24
2019-02-25T00:43:42.878Z,24
2019-02-25T00:44:45.313Z,24
2019-02-25T00:45:47.752Z,24
2019-02-25T00:46:50.173Z,24
2019-02-25T00:47:52.590Z,24
2019-02-25T00:48:55.025Z,24
2019-02-25T00:49:57.454Z,24
2019-02-25T00:50:59.603Z,24
2019-02-25T00:52:01.774Z,24
2019-02-25T00:53:03.643Z,24
2019-02-25T00:54:06.075Z,24
2019-02-25T00:55:08.540Z,24
2019-02-25T00:56:10.980Z,24
2019-02-25T00:57:13.399Z,24
2019-02-25T00:58:15.565Z,24
2019-02-25T00:59:17.741Z,24.1
2019-02-25T01:00:20.181Z,24.1
2019-02-25T01:01:22.338Z,24.1
2019-02-25T01:02:24.503Z,24.1
2019-02-25T01:03:26.633Z,24.1
2019-02-25T01:04:28.796Z,24.2
2019-02-25T01:05:31.221Z,24.2
2019-02-25T01:06:33.645Z,24.2
2019-02-25T01:07:36.071Z,24.2
2019-02-25T01:08:38.204Z,24.2
2019-02-25T01:09:40.342Z,24.2
2019-02-25T01:10:42.775Z,24.3
2019-02-25T01:11:44.945Z,24.3
2019-02-25T01:12:47.371Z,24.3
2019-02-25T01:13:49.804Z,24.3
2019-02-25T01:14:51.997Z,24.3
2019-02-25T01:15:54.428Z,24.3
2019-02-25T01:16:56.585Z,24.3
2019-02-25T01:18:00.663Z,24.3
2019-02-25T01:19:02.811Z,24.3
2019-02-25T01:20:05.235Z,24.3
2019-02-25T01:21:07.149Z,24.4
2019-02-25T01:22:09.300Z,24.4
2019-02-25T01:23:11.731Z,24.4
2019-02-25T01:24:13.893Z,24.4
2019-02-25T01:25:16.333Z,24.4
2019-02-25T01:26:18.487Z,24.4
2019-02-25T01:27:20.915Z,24.4
2019-02-25T01:28:23.336Z,24.4
2019-02-25T01:29:25.764Z,24.4
2019-02-25T01:30:28.193Z,24.4
2019-02-25T01:31:30.346Z,24.4
2019-02-25T01:32:32.778Z,24.4
2019-02-25T01:33:35.217Z,24.4
2019-02-25T01:34:37.633Z,24.4
2019-02-25T01:35:39.783Z,24.4
2019-02-25T01:36:41.945Z,24.4
2019-02-25T01:37:44.379Z,24.4
2019-02-25T01:38:45.983Z,24.4
2019-02-25T01:39:48.422Z,24.4
2019-02-25T01:40:50.846Z,24.5
2019-02-25T01:41:52.733Z,24.5
2019-02-25T01:42:54.894Z,24.5
2019-02-25T01:43:57.315Z,24.5
2019-02-25T01:44:59.467Z,24.5
2019-02-25T01:46:01.891Z,24.5
2019-02-25T01:47:03.755Z,24.5
2019-02-25T01:48:06.169Z,24.5
2019-02-25T01:49:08.604Z,24.5
2019-02-25T01:50:11.019Z,24.5
2019-02-25T01:51:12.919Z,24.5
2019-02-25T01:52:15.341Z,24.5
2019-02-25T01:53:17.759Z,24.5
2019-02-25T01:54:19.911Z,24.5
2019-02-25T01:55:22.331Z,24.5
2019-02-25T01:56:24.497Z,24.5
2019-02-25T01:57:26.619Z,24.5
2019-02-25T01:58:28.210Z,24.5
2019-02-25T01:59:30.356Z,24.5
2019-02-25T02:00:32.251Z,24.5
2019-02-25T02:01:34.119Z,24.5
2019-02-25T02:02:36.020Z,24.5
2019-02-25T02:03:38.441Z,24.5
2019-02-25T02:04:40.884Z,24.6
2019-02-25T02:05:42.780Z,24.6
2019-02-25T02:06:45.212Z,24.6
2019-02-25T02:07:47.365Z,24.6
2019-02-25T02:08:49.531Z,24.5
2019-02-25T02:09:51.684Z,24.5
2019-02-25T02:10:53.561Z,24.6
2019-02-25T02:11:55.432Z,24.6
2019-02-25T02:12:57.858Z,24.6
2019-02-25T02:14:00.019Z,24.6
2019-02-25T02:15:02.191Z,24.6
2019-02-25T02:16:04.652Z,24.6
2019-02-25T02:17:07.086Z,24.6
2019-02-25T02:18:09.238Z,24.6
2019-02-25T02:19:11.664Z,24.6
2019-02-25T02:20:13.813Z,24.6
2019-02-25T02:21:15.960Z,24.6
2019-02-25T02:22:18.120Z,24.6
2019-02-25T02:23:20.289Z,24.6
2019-02-25T02:24:22.477Z,24.6
2019-02-25T02:25:24.369Z,24.6
2019-02-25T02:26:26.536Z,24.6
2019-02-25T02:27:28.673Z,24.6
2019-02-25T02:28:30.829Z,24.6
2019-02-25T02:29:33.263Z,24.6
2019-02-25T02:30:35.410Z,24.6
2019-02-25T02:31:37.562Z,24.6
2019-02-25T02:32:39.428Z,24.6
2019-02-25T02:33:41.859Z,24.6
2019-02-25T02:34:44.286Z,24.6
2019-02-25T02:35:46.190Z,24.6
2019-02-25T02:36:48.314Z,24.6
2019-02-25T02:37:50.473Z,24.6
2019-02-25T02:38:52.627Z,24.6
2019-02-25T02:39:54.529Z,24.6
2019-02-25T02:40:56.442Z,24.6
2019-02-25T02:41:58.892Z,24.6
2019-02-25T02:43:01.315Z,24.6
2019-02-25T02:44:03.475Z,24.6
2019-02-25T02:45:05.912Z,24.6
2019-02-25T02:46:08.406Z,24.6
2019-02-25T02:47:10.593Z,24.6
2019-02-25T02:48:12.738Z,24.6
2019-02-25T02:49:14.899Z,24.6
2019-02-25T02:50:17.112Z,24.6
2019-02-25T02:51:19.541Z,24.6
2019-02-25T02:52:21.712Z,24.6
2019-02-25T02:53:24.147Z,24.6
2019-02-25T02:54:26.301Z,24.6
2019-02-25T02:55:28.455Z,24.6
2019-02-25T02:56:30.622Z,24.6
2019-02-25T02:57:32.800Z,24.6
2019-02-25T02:58:35.011Z,24.6
2019-02-25T02:59:37.162Z,24.6
2019-02-25T03:00:39.320Z,24.6
2019-02-25T03:01:41.470Z,24.6
2019-02-25T03:02:43.889Z,24.6
2019-02-25T03:03:46.316Z,24.6
2019-02-25T03:04:48.756Z,24.6
2019-02-25T03:05:51.179Z,24.6
2019-02-25T03:06:53.612Z,24.6
2019-02-25T03:07:55.758Z,24.6
2019-02-25T03:08:58.252Z,24.6
2019-02-25T03:10:00.760Z,24.6
2019-02-25T03:11:03.181Z,24.6
2019-02-25T03:12:05.051Z,24.6
2019-02-25T03:13:07.468Z,24.6
2019-02-25T03:14:09.900Z,24.6
2019-02-25T03:15:12.327Z,24.6
2019-02-25T03:16:14.466Z,24.6
2019-02-25T03:17:16.888Z,24.6
2019-02-25T03:18:19.314Z,24.6
2019-02-25T03:19:21.753Z,24.6
2019-02-25T03:20:24.176Z,24.6
2019-02-25T03:21:26.402Z,24.6
2019-02-25T03:22:28.545Z,24.6
2019-02-25T03:23:30.681Z,24.6
2019-02-25T03:24:32.837Z,24.7
2019-02-25T03:25:34.443Z,24.7
2019-02-25T03:26:36.609Z,24.7
2019-02-25T03:27:38.750Z,24.7
2019-02-25T03:28:41.178Z,24.7
2019-02-25T03:29:43.061Z,24.7
2019-02-25T03:30:45.490Z,24.7
2019-02-25T03:31:47.633Z,24.7
2019-02-25T03:32:50.096Z,24.6
2019-02-25T03:33:52.016Z,24.6
2019-02-25T03:34:54.454Z,24.6
2019-02-25T03:35:56.319Z,24.6
2019-02-25T03:36:58.478Z,24.6
2019-02-25T03:38:00.913Z,24.6
2019-02-25T03:39:03.341Z,24.6
2019-02-25T03:40:05.495Z,24.6
2019-02-25T03:41:07.921Z,24.6
2019-02-25T03:42:10.058Z,24.6
2019-02-25T03:43:12.486Z,24.6
2019-02-25T03:44:14.657Z,24.6
2019-02-25T03:45:17.079Z,24.6
2019-02-25T03:46:19.251Z,24.6
2019-02-25T03:47:21.148Z,24.6
2019-02-25T03:48:22.998Z,24.6
2019-02-25T03:49:25.161Z,24.6
2019-02-25T03:50:27.023Z,24.6
2019-02-25T03:51:29.452Z,24.6
2019-02-25T03:52:31.878Z,24.6
2019-02-25T03:53:33.766Z,24.6
2019-02-25T03:54:35.075Z,24.6
2019-02-25T03:55:37.250Z,24.7
2019-02-25T03:56:39.410Z,24.7
2019-02-25T03:57:41.850Z,24.7
2019-02-25T03:58:43.735Z,24.7
2019-02-25T03:59:46.145Z,24.7
2019-02-25T04:00:48.579Z,24.7
2019-02-25T04:01:50.479Z,24.6
2019-02-25T04:02:52.910Z,24.6
2019-02-25T04:03:55.041Z,24.6
2019-02-25T04:04:57.171Z,24.6
2019-02-25T04:05:58.818Z,24.6
2019-02-25T04:07:00.707Z,24.6
2019-02-25T04:08:03.124Z,24.5
2019-02-25T04:09:05.565Z,24.5
2019-02-25T04:10:07.718Z,24.5
2019-02-25T04:11:09.581Z,24.5
2019-02-25T04:12:12.013Z,24.5
2019-02-25T04:13:14.435Z,24.5
2019-02-25T04:14:16.029Z,24.4
2019-02-25T04:15:18.475Z,24.4
2019-02-25T04:16:20.668Z,24.4
2019-02-25T04:17:23.105Z,24.4
2019-02-25T04:18:25.540Z,24.4
2019-02-25T04:19:27.435Z,24.4
2019-02-25T04:20:29.920Z,24.4
2019-02-25T04:21:32.359Z,24.3
2019-02-25T04:22:34.785Z,24.3
2019-02-25T04:23:36.926Z,24.3
2019-02-25T04:24:39.351Z,24.3
2019-02-25T04:25:41.503Z,24.3
2019-02-25T04:26:43.618Z,24.3
2019-02-25T04:27:46.057Z,24.3
2019-02-25T04:28:48.218Z,24.3
2019-02-25T04:29:50.380Z,24.3
2019-02-25T04:30:52.808Z,24.3
2019-02-25T04:31:55.274Z,24.3
2019-02-25T04:32:57.704Z,24.3
2019-02-25T04:34:00.139Z,24.2
2019-02-25T04:35:02.598Z,24.2
2019-02-25T04:36:05.028Z,24.2
2019-02-25T04:37:07.451Z,24.2
2019-02-25T04:38:09.876Z,24.2
2019-02-25T04:39:11.732Z,24.2
2019-02-25T04:40:14.157Z,24.2
2019-02-25T04:41:16.007Z,24.2
2019-02-25T04:42:17.896Z,24.2
2019-02-25T04:43:20.316Z,24.2
2019-02-25T04:44:22.748Z,24.2
2019-02-25T04:45:25.183Z,24.2
2019-02-25T04:46:27.330Z,24.2
2019-02-25T04:47:29.484Z,24.2
2019-02-25T04:48:31.901Z,24.1
2019-02-25T04:49:34.328Z,24.2
2019-02-25T04:50:36.480Z,24.1
2019-02-25T04:51:38.902Z,24.2
2019-02-25T04:52:41.329Z,24.1
2019-02-25T04:53:43.766Z,24.1
2019-02-25T04:54:46.174Z,24.1
2019-02-25T04:55:48.067Z,24.1
2019-02-25T04:56:50.226Z,24.1
2019-02-25T04:57:52.381Z,24.1
2019-02-25T04:58:54.802Z,24.1
2019-02-25T04:59:57.223Z,24.1
2019-02-25T05:00:59.380Z,24.1
2019-02-25T05:02:03.082Z,24.1
2019-02-25T05:03:04.964Z,24.1
2019-02-25T05:04:07.389Z,24.1
2019-02-25T05:05:09.832Z,24.1
2019-02-25T05:06:11.424Z,24.1
2019-02-25T05:07:13.853Z,24.1
2019-02-25T05:08:16.009Z,24.1
2019-02-25T05:09:18.455Z,24.1
2019-02-25T05:10:20.882Z,24
2019-02-25T05:11:23.326Z,24.1
2019-02-25T05:12:27.423Z,24
2019-02-25T05:13:29.299Z,24
2019-02-25T05:14:31.724Z,24
2019-02-25T05:15:34.603Z,24
2019-02-25T05:16:36.596Z,24
2019-02-25T05:17:43.628Z,24
2019-02-25T05:18:46.073Z,24
2019-02-25T05:19:48.511Z,24
2019-02-25T05:20:50.946Z,24
2019-02-25T05:21:53.398Z,24
2019-02-25T05:22:55.831Z,24
2019-02-25T05:23:57.980Z,24
2019-02-25T05:25:00.496Z,24
2019-02-25T05:26:02.685Z,24
2019-02-25T05:27:04.850Z,24
2019-02-25T05:28:07.043Z,24
2019-02-25T05:29:09.521Z,24
2019-02-25T05:30:11.954Z,24
2019-02-25T05:31:14.166Z,24
2019-02-25T05:32:16.350Z,24
2019-02-25T05:33:18.347Z,24
2019-02-25T05:34:20.540Z,24
2019-02-25T05:35:23.003Z,24
2019-02-25T05:36:25.435Z,24
2019-02-25T05:37:27.569Z,24
2019-02-25T05:38:29.725Z,24
2019-02-25T05:39:32.148Z,24
2019-02-25T05:40:34.602Z,24
2019-02-25T05:41:36.801Z,24
2019-02-25T05:42:38.982Z,24
2019-02-25T05:43:41.436Z,24
2019-02-25T05:44:43.880Z,24
2019-02-25T05:45:46.322Z,24
2019-02-25T05:46:48.764Z,24
2019-02-25T05:47:50.944Z,24
2019-02-25T05:48:53.381Z,24
2019-02-25T05:49:54.980Z,24
2019-02-25T05:50:57.435Z,24
2019-02-25T05:51:59.869Z,24
2019-02-25T05:53:02.309Z,24
2019-02-25T05:54:04.480Z,24
2019-02-25T05:55:06.923Z,24
2019-02-25T05:56:09.090Z,24
2019-02-25T05:57:10.962Z,24
2019-02-25T05:58:13.433Z,24
2019-02-25T05:59:15.912Z,23.9
2019-02-25T06:00:18.340Z,24
2019-02-25T06:01:20.777Z,24
2019-02-25T06:02:23.218Z,24
2019-02-25T06:03:25.662Z,23.9
2019-02-25T06:04:28.091Z,23.9
2019-02-25T06:05:30.518Z,23.9
2019-02-25T06:06:32.942Z,23.9
2019-02-25T06:07:35.103Z,23.9
2019-02-25T06:08:37.047Z,23.9
2019-02-25T06:09:39.525Z,23.9
2019-02-25T06:10:41.687Z,23.9
2019-02-25T06:11:43.850Z,23.9
2019-02-25T06:12:46.020Z,23.9
2019-02-25T06:13:48.180Z,23.9
2019-02-25T06:14:50.323Z,23.9
2019-02-25T06:15:52.766Z,23.9
2019-02-25T06:16:54.941Z,23.9
2019-02-25T06:17:57.372Z,23.9
2019-02-25T06:18:59.819Z,23.9
2019-02-25T06:20:01.984Z,23.9
2019-02-25T06:21:04.433Z,23.9
2019-02-25T06:22:06.313Z,23.9
2019-02-25T06:23:08.753Z,23.9
2019-02-25T06:24:10.941Z,23.9
2019-02-25T06:25:13.214Z,23.9
2019-02-25T06:26:15.367Z,23.9
2019-02-25T06:27:17.523Z,23.9
2019-02-25T06:28:19.951Z,23.9
2019-02-25T06:29:22.398Z,23.9
2019-02-25T06:30:24.847Z,23.9
2019-02-25T06:31:27.278Z,23.9
2019-02-25T06:32:29.171Z,23.9
2019-02-25T06:33:31.602Z,23.9
2019-02-25T06:34:34.026Z,23.9
2019-02-25T06:35:36.457Z,23.9
2019-02-25T06:36:38.891Z,23.9
2019-02-25T06:37:41.056Z,23.9
2019-02-25T06:38:43.707Z,23.9
2019-02-25T06:39:45.868Z,23.9
2019-02-25T06:40:47.743Z,23.9
2019-02-25T06:41:49.615Z,23.9
2019-02-25T06:42:51.780Z,23.9
2019-02-25T06:43:53.933Z,23.9
2019-02-25T06:44:56.373Z,23.9
2019-02-25T06:45:58.795Z,23.9
2019-02-25T06:47:01.237Z,23.9
2019-02-25T06:48:03.411Z,23.9
2019-02-25T06:49:05.885Z,23.9
2019-02-25T06:50:08.043Z,23.9
2019-02-25T06:51:10.480Z,23.9
2019-02-25T06:52:12.912Z,23.9
2019-02-25T06:53:15.342Z,23.8
2019-02-25T06:54:17.761Z,23.8
2019-02-25T06:55:20.194Z,23.8
2019-02-25T06:56:22.615Z,23.8
2019-02-25T06:57:24.530Z,23.8
2019-02-25T06:58:26.991Z,23.9
2019-02-25T06:59:29.433Z,23.8
2019-02-25T07:00:31.629Z,23.8
2019-02-25T07:01:33.777Z,23.9
2019-02-25T07:02:36.199Z,23.8
2019-02-25T07:03:38.621Z,23.8
2019-02-25T07:04:41.047Z,23.8
2019-02-25T07:05:42.932Z,23.8
2019-02-25T07:06:45.373Z,23.8
2019-02-25T07:07:47.799Z,23.8
2019-02-25T07:08:50.239Z,23.8
2019-02-25T07:09:52.677Z,23.8
2019-02-25T07:10:54.287Z,23.9
2019-02-25T07:11:56.155Z,23.8
2019-02-25T07:12:58.589Z,23.8
2019-02-25T07:14:00.760Z,23.8
2019-02-25T07:15:03.183Z,23.8
2019-02-25T07:16:05.609Z,23.8
2019-02-25T07:17:07.743Z,23.9
2019-02-25T07:18:10.171Z,23.8
2019-02-25T07:19:12.599Z,23.8
2019-02-25T07:20:15.029Z,23.8
2019-02-25T07:21:16.889Z,23.8
2019-02-25T07:22:19.316Z,23.8
2019-02-25T07:23:21.214Z,23.8
2019-02-25T07:24:23.359Z,23.8
2019-02-25T07:25:25.517Z,23.8
2019-02-25T07:26:28.628Z,23.8
2019-02-25T07:27:31.069Z,23.8
2019-02-25T07:28:33.499Z,23.8
2019-02-25T07:29:35.663Z,23.8
2019-02-25T07:30:38.097Z,23.8
2019-02-25T07:31:40.530Z,23.8
2019-02-25T07:32:42.670Z,23.8
2019-02-25T07:33:45.090Z,23.8
2019-02-25T07:34:47.522Z,23.8
2019-02-25T07:35:49.680Z,23.8
2019-02-25T07:36:51.884Z,23.8
2019-02-25T07:37:54.027Z,23.8
2019-02-25T07:38:56.442Z,23.8
2019-02-25T07:39:58.573Z,23.8
2019-02-25T07:41:00.738Z,23.8
2019-02-25T07:42:03.162Z,23.8
2019-02-25T07:43:05.820Z,23.8
2019-02-25T07:44:07.991Z,23.8
2019-02-25T07:45:10.454Z,23.8
2019-02-25T07:46:12.878Z,23.8
2019-02-25T07:47:15.307Z,23.8
2019-02-25T07:48:17.483Z,23.8
2019-02-25T07:49:19.913Z,23.8
2019-02-25T07:50:21.792Z,23.8
2019-02-25T07:51:24.232Z,23.8
2019-02-25T07:52:26.382Z,23.8
2019-02-25T07:53:28.540Z,23.8
2019-02-25T07:54:30.960Z,23.8
2019-02-25T07:55:33.402Z,23.8
2019-02-25T07:56:35.550Z,23.8
2019-02-25T07:57:37.770Z,23.8
2019-02-25T07:58:40.188Z,23.8
2019-02-25T07:59:42.343Z,23.8
2019-02-25T08:00:44.241Z,23.8
2019-02-25T08:01:46.672Z,23.8
2019-02-25T08:02:49.101Z,23.8
2019-02-25T08:03:51.273Z,23.8
2019-02-25T08:04:53.709Z,23.8
2019-02-25T08:05:55.863Z,23.8
2019-02-25T08:06:58.019Z,23.8
2019-02-25T08:08:00.441Z,23.8
2019-02-25T08:09:02.628Z,23.8
2019-02-25T08:10:04.217Z,23.8
2019-02-25T08:11:06.640Z,23.8
2019-02-25T08:12:08.548Z,23.8
2019-02-25T08:13:10.707Z,23.8
2019-02-25T08:14:12.595Z,23.8
2019-02-25T08:15:14.736Z,23.8
2019-02-25T08:16:17.162Z,23.8
2019-02-25T08:17:19.349Z,23.8
2019-02-25T08:18:21.801Z,23.8
2019-02-25T08:19:23.676Z,23.8
2019-02-25T08:20:26.124Z,23.8
2019-02-25T08:21:28.550Z,23.8
2019-02-25T08:22:30.698Z,23.8
2019-02-25T08:23:32.854Z,23.8
2019-02-25T08:24:35.285Z,23.8
2019-02-25T08:25:37.168Z,23.8
2019-02-25T08:26:39.309Z,23.8
2019-02-25T08:27:41.167Z,23.8
2019-02-25T08:28:43.607Z,23.8
2019-02-25T08:29:46.037Z,23.8
2019-02-25T08:30:48.197Z,23.8
2019-02-25T08:31:50.638Z,23.8
2019-02-25T08:32:52.773Z,23.8
2019-02-25T08:33:56.511Z,23.8
2019-02-25T08:34:58.404Z,23.8
2019-02-25T08:36:00.569Z,23.8
2019-02-25T08:37:03.689Z,23.8
2019-02-25T08:38:05.297Z,23.8
2019-02-25T08:39:07.722Z,23.8
2019-02-25T08:40:12.122Z,23.8
2019-02-25T08:41:14.009Z,23.8
2019-02-25T08:42:16.451Z,23.8
2019-02-25T08:43:18.879Z,23.8
2019-02-25T08:44:21.049Z,23.8
2019-02-25T08:45:23.880Z,23.8
2019-02-25T08:46:26.300Z,23.8
2019-02-25T08:47:28.451Z,23.8
2019-02-25T08:48:30.875Z,23.8
2019-02-25T08:49:32.778Z,23.8
2019-02-25T08:50:35.209Z,23.8
2019-02-25T08:51:37.365Z,23.8
2019-02-25T08:52:39.239Z,23.8
2019-02-25T08:53:42.275Z,23.8
2019-02-25T08:54:44.417Z,23.8
2019-02-25T08:55:46.840Z,23.8
2019-02-25T08:56:48.975Z,23.8
2019-02-25T08:57:51.113Z,23.8
2019-02-25T08:58:53.289Z,23.8
2019-02-25T08:59:55.462Z,23.8
2019-02-25T09:00:57.890Z,23.8
2019-02-25T09:02:00.080Z,23.8
2019-02-25T09:03:02.226Z,23.8
2019-02-25T09:04:04.415Z,23.8
2019-02-25T09:05:06.843Z,23.8
2019-02-25T09:06:09.019Z,23.8
2019-02-25T09:07:11.445Z,23.8
2019-02-25T09:08:13.895Z,23.8
2019-02-25T09:09:16.050Z,23.8
2019-02-25T09:10:18.482Z,23.8
2019-02-25T09:11:20.622Z,23.8
2019-02-25T09:12:22.793Z,23.8
2019-02-25T09:13:25.229Z,23.8
2019-02-25T09:14:27.389Z,23.8
2019-02-25T09:15:29.828Z,23.8
2019-02-25T09:16:34.453Z,23.8
2019-02-25T09:17:36.885Z,23.8
2019-02-25T09:18:39.027Z,23.8
2019-02-25T09:19:41.452Z,23.8
2019-02-25T09:20:43.598Z,23.8
2019-02-25T09:21:46.070Z,23.8
2019-02-25T09:22:48.496Z,23.8
2019-02-25T09:23:51.487Z,23.8
2019-02-25T09:24:53.643Z,23.8
2019-02-25T09:25:55.529Z,23.8
2019-02-25T09:26:57.694Z,23.8
2019-02-25T09:28:00.115Z,23.8
2019-02-25T09:29:02.538Z,23.8
2019-02-25T09:30:04.963Z,23.8
2019-02-25T09:31:07.404Z,23.8
2019-02-25T09:32:09.838Z,23.8
2019-02-25T09:33:12.263Z,23.8
2019-02-25T09:34:14.429Z,23.8
2019-02-25T09:35:16.860Z,23.8
2019-02-25T09:36:19.292Z,23.8
2019-02-25T09:37:21.716Z,23.8
2019-02-25T09:38:24.689Z,23.8
2019-02-25T09:39:26.292Z,23.8
2019-02-25T09:40:28.153Z,23.8
2019-02-25T09:41:31.370Z,23.8
2019-02-25T09:42:33.523Z,23.8
2019-02-25T09:43:35.960Z,23.8
2019-02-25T09:44:39.048Z,23.8
2019-02-25T09:45:41.231Z,23.8
2019-02-25T09:46:43.664Z,23.8
2019-02-25T09:47:45.814Z,23.8
2019-02-25T09:48:47.974Z,23.8
2019-02-25T09:49:52.080Z,23.8
2019-02-25T09:50:54.507Z,23.8
2019-02-25T09:51:56.938Z,23.8
2019-02-25T09:52:59.358Z,23.8
2019-02-25T09:54:01.230Z,23.8
2019-02-25T09:55:03.664Z,23.8
2019-02-25T09:56:06.090Z,23.8
2019-02-25T09:57:08.548Z,23.8
2019-02-25T09:58:10.720Z,23.8
2019-02-25T09:59:12.881Z,23.8
2019-02-25T10:00:15.307Z,23.8
2019-02-25T10:01:17.471Z,23.8
2019-02-25T10:02:19.889Z,23.8
2019-02-25T10:03:22.016Z,23.8
2019-02-25T10:04:24.435Z,23.8
2019-02-25T10:05:26.590Z,23.8
2019-02-25T10:06:29.018Z,23.8
2019-02-25T10:07:31.451Z,23.8
2019-02-25T10:08:33.893Z,23.8
2019-02-25T10:09:36.326Z,23.8
2019-02-25T10:10:38.756Z,23.8
2019-02-25T10:11:40.925Z,23.8
2019-02-25T10:12:43.093Z,23.8
2019-02-25T10:13:44.979Z,23.8
2019-02-25T10:14:46.851Z,23.8
2019-02-25T10:15:51.052Z,23.8
2019-02-25T10:16:54.984Z,23.8
2019-02-25T10:17:57.432Z,23.8
2019-02-25T10:18:59.868Z,23.8
2019-02-25T10:20:02.302Z,23.8
2019-02-25T10:21:04.204Z,23.8
2019-02-25T10:22:06.628Z,23.8
2019-02-25T10:23:08.787Z,23.8
2019-02-25T10:24:10.954Z,23.8
2019-02-25T10:25:13.388Z,23.8
2019-02-25T10:26:15.270Z,23.8
2019-02-25T10:27:17.425Z,23.8
2019-02-25T10:28:19.587Z,23.8
2019-02-25T10:29:22.021Z,23.8
2019-02-25T10:30:24.186Z,23.8
2019-02-25T10:31:26.606Z,23.8
2019-02-25T10:32:30.915Z,23.8
2019-02-25T10:33:33.069Z,23.8
2019-02-25T10:34:35.230Z,23.8
2019-02-25T10:35:37.388Z,23.8
2019-02-25T10:36:39.808Z,23.8
2019-02-25T10:37:44.338Z,23.8
2019-02-25T10:38:46.492Z,23.8
2019-02-25T10:39:51.983Z,23.8
2019-02-25T10:40:54.911Z,23.8
2019-02-25T10:43:02.057Z,23.8
2019-02-25T10:48:26.393Z,23.8
2019-02-25T10:53:54.165Z,23.8
2019-02-25T10:54:58.819Z,23.8
2019-02-25T10:56:01.240Z,23.8
2019-02-25T10:57:03.663Z,23.8
2019-02-25T10:58:06.084Z,23.8
2019-02-25T10:59:09.241Z,23.8
2019-02-25T11:00:14.349Z,23.8
2019-02-25T11:02:21.757Z,23.8
2019-02-25T11:03:23.620Z,23.8
2019-02-25T11:04:27.288Z,23.8
2019-02-25T11:05:31.622Z,23.8
2019-02-25T11:07:42.464Z,23.8
2019-02-25T11:08:46.678Z,23.8
2019-02-25T11:09:51.237Z,23.8
2019-02-25T11:13:05.259Z,23.8
2019-02-25T11:17:25.346Z,23.8
2019-02-25T11:18:29.394Z,23.8
2019-02-25T11:19:33.955Z,23.8
2019-02-25T11:22:48.768Z,23.8
2019-02-25T11:24:58.368Z,23.8
2019-02-25T11:27:07.894Z,23.8
2019-02-25T11:29:17.271Z,23.9
2019-02-25T11:30:23.960Z,23.9
2019-02-25T11:32:31.426Z,23.9
2019-02-25T11:33:35.420Z,23.9
2019-02-25T11:34:40.371Z,23.9
2019-02-25T11:35:48.037Z,23.8
2019-02-25T11:40:05.426Z,23.9
2019-02-25T11:41:11.502Z,23.9
2019-02-25T11:44:31.119Z,23.9
2019-02-25T11:45:32.662Z,23.9
2019-02-25T11:46:35.089Z,23.9
2019-02-25T11:47:36.687Z,23.9
2019-02-25T11:48:39.109Z,23.9
2019-02-25T11:49:41.261Z,23.9
2019-02-25T11:50:45.784Z,23.9
2019-02-25T11:51:48.207Z,23.9
2019-02-25T11:52:50.357Z,23.9
2019-02-25T11:53:52.804Z,23.9
2019-02-25T11:54:55.234Z,23.9
2019-02-25T11:55:57.666Z,23.9
2019-02-25T11:56:59.550Z,23.9
2019-02-25T11:58:02.002Z,23.9
2019-02-25T11:59:04.467Z,23.9
2019-02-25T12:00:06.593Z,23.9
2019-02-25T12:01:08.461Z,23.9
2019-02-25T12:02:10.330Z,23.9
2019-02-25T12:03:12.495Z,23.9
2019-02-25T12:04:14.921Z,23.9
2019-02-25T12:05:17.353Z,23.9
2019-02-25T12:06:19.801Z,23.9
2019-02-25T12:07:22.232Z,23.9
2019-02-25T12:08:24.678Z,23.9
2019-02-25T12:09:27.113Z,23.9
2019-02-25T12:10:29.263Z,23.9
2019-02-25T12:11:31.422Z,23.9
2019-02-25T12:12:33.589Z,23.9
2019-02-25T12:13:35.742Z,23.9
2019-02-25T12:14:38.174Z,23.9
2019-02-25T12:15:40.600Z,23.9
2019-02-25T12:16:42.480Z,23.9
2019-02-25T12:17:44.636Z,23.9
2019-02-25T12:18:46.785Z,23.9
2019-02-25T12:19:48.671Z,23.9
2019-02-25T12:20:50.537Z,23.9
2019-02-25T12:21:52.981Z,23.9
2019-02-25T12:22:55.411Z,23.9
2019-02-25T12:23:57.852Z,23.9
2019-02-25T12:25:00.281Z,23.9
2019-02-25T12:26:02.789Z,23.9
2019-02-25T12:27:05.210Z,23.9
2019-02-25T12:28:07.100Z,23.9
2019-02-25T12:30:14.243Z,23.9
2019-02-25T12:31:16.670Z,23.9
2019-02-25T12:32:18.832Z,23.9
2019-02-25T12:33:21.016Z,23.9
2019-02-25T12:34:23.463Z,23.9
2019-02-25T12:35:25.904Z,23.9
2019-02-25T12:36:28.052Z,23.9
2019-02-25T12:37:30.190Z,23.9
2019-02-25T12:38:32.097Z,23.9
2019-02-25T12:39:34.247Z,23.9
2019-02-25T12:40:36.683Z,23.9
2019-02-25T12:41:38.863Z,23.9
2019-02-25T12:42:41.289Z,23.9
2019-02-25T12:43:43.726Z,23.9
2019-02-25T12:44:46.162Z,23.9
2019-02-25T12:45:48.601Z,23.9
2019-02-25T12:46:51.039Z,23.9
2019-02-25T12:47:53.474Z,23.9
2019-02-25T12:48:55.901Z,23.9
2019-02-25T12:49:58.074Z,23.9
2019-02-25T12:51:00.510Z,23.9
2019-02-25T12:52:02.949Z,23.9
2019-02-25T12:53:05.380Z,23.9
2019-02-25T12:54:07.537Z,23.9
2019-02-25T12:55:09.702Z,23.9
2019-02-25T12:56:11.576Z,23.9
2019-02-25T12:57:13.446Z,23.9
2019-02-25T12:58:15.314Z,23.9
2019-02-25T12:59:17.750Z,23.9
2019-02-25T13:00:19.907Z,23.9
2019-02-25T13:01:22.091Z,23.9
2019-02-25T13:02:24.509Z,23.9
2019-02-25T13:03:26.948Z,23.9
2019-02-25T13:04:29.102Z,23.9
2019-02-25T13:05:31.265Z,23.9
2019-02-25T13:06:33.136Z,23.9
2019-02-25T13:07:35.336Z,23.9
2019-02-25T13:08:37.768Z,23.9
2019-02-25T13:09:39.655Z,23.9
2019-02-25T13:10:42.085Z,23.9
2019-02-25T13:11:43.966Z,23.9
2019-02-25T13:12:46.410Z,23.9
2019-02-25T13:13:48.843Z,23.8
2019-02-25T13:14:50.757Z,23.8
2019-02-25T13:15:52.942Z,23.9
2019-02-25T13:16:55.384Z,23.9
2019-02-25T13:17:57.532Z,23.8
2019-02-25T13:19:02.139Z,23.9
2019-02-25T13:20:04.291Z,23.8
2019-02-25T13:21:06.462Z,23.9
2019-02-25T13:22:08.625Z,23.8
2019-02-25T13:23:10.790Z,23.8
2019-02-25T13:24:13.213Z,23.9
2019-02-25T13:25:15.635Z,23.8
2019-02-25T13:26:17.812Z,23.8
2019-02-25T13:27:19.465Z,23.8
2019-02-25T13:28:26.117Z,23.8
2019-02-25T13:29:30.369Z,23.8
2019-02-25T13:30:32.575Z,23.8
2019-02-25T13:31:34.729Z,23.8
2019-02-25T13:32:36.915Z,23.8
2019-02-25T13:33:39.400Z,23.8
2019-02-25T13:34:41.396Z,23.8
2019-02-25T13:35:43.556Z,23.8
2019-02-25T13:36:46.452Z,23.8
2019-02-25T13:37:48.650Z,23.8
2019-02-25T13:38:50.575Z,23.8
2019-02-25T13:39:52.753Z,23.8
2019-02-25T13:40:55.211Z,23.8
2019-02-25T13:41:57.715Z,23.8
2019-02-25T13:42:59.930Z,23.8
2019-02-25T13:44:02.191Z,23.8
2019-02-25T13:45:04.789Z,23.8
2019-02-25T13:46:07.302Z,23.8
2019-02-25T13:47:09.795Z,23.8
2019-02-25T13:48:12.332Z,23.8
2019-02-25T13:49:14.541Z,23.8
2019-02-25T13:50:17.079Z,23.8
2019-02-25T13:51:19.650Z,23.8
2019-02-25T13:52:22.154Z,23.8
2019-02-25T13:53:24.657Z,23.8
2019-02-25T13:54:29.375Z,23.8
2019-02-25T13:55:31.848Z,23.8
2019-02-25T13:56:34.793Z,23.8
2019-02-25T13:57:37.257Z,23.8
2019-02-25T13:58:39.177Z,23.8
2019-02-25T13:59:41.649Z,23.8
2019-02-25T14:00:43.862Z,23.8
2019-02-25T14:01:46.404Z,23.8
2019-02-25T14:02:48.422Z,23.8
2019-02-25T14:03:50.696Z,23.8
2019-02-25T14:04:52.896Z,23.8
2019-02-25T14:05:55.519Z,23.8
2019-02-25T14:06:57.941Z,23.8
2019-02-25T14:08:00.380Z,23.8
2019-02-25T14:09:02.054Z,23.8
2019-02-25T14:10:04.505Z,23.8
2019-02-25T14:11:06.935Z,23.8
2019-02-25T14:12:09.372Z,23.8
2019-02-25T14:13:11.531Z,23.8
2019-02-25T14:14:13.990Z,23.8
2019-02-25T14:15:16.527Z,23.8
2019-02-25T14:16:19.094Z,23.8
2019-02-25T14:17:22.417Z,23.8
2019-02-25T14:18:25.169Z,23.8
2019-02-25T14:19:27.599Z,23.8
2019-02-25T14:20:30.051Z,23.8
2019-02-25T14:22:38.268Z,23.8
2019-02-25T14:23:41.570Z,23.8
2019-02-25T14:24:43.960Z,23.8
2019-02-25T14:25:46.412Z,23.8
2019-02-25T14:26:48.582Z,23.8